Terminal Aerodrome Forecast
Issued by NWS

Home | Current Version | Previous Version | Text Only | Print | Product List | Glossary On
Versions: 1 2 3 4 5 6 7 8 9 10 11 12 13 14 15 16 17 18 19 20 21 22 23 24 25 26 27
000
FTUS46 KPDT 301200 AAA
TAFALW
TAF AMD
KALW 301227Z 3012/3112 19004KT P6SM OVC009
      TEMPO 3012/3016 4SM BR OVC007
     FM301800 24002KT 6SM HZ OVC007
     FM302300 VRB03KT P6SM OVC011
     FM310400 13004KT 3SM BR OVC007=

USA.gov is the U.S. government's official web portal to all federal, state and local government web resources and services.